Time;durP1;ratioP1;P1;durP2;ratioP2;P2;SDS_P1;SDS_P2;PMS_P1;PMS_P2;Temp;Humidity;BMP_temperature;BMP_pressure;BME280_temperature;BME280_humidity;BME280_pressure;Samples;Min_cycle;Max_cycle;Signal;HPM_P1;HPM_P2
2023/05/14 00:02:32;;;;;;;13.40;6.37;;;;;;;;;;10395595;28;20259;-76
2023/05/14 00:07:36;;;;;;;18.35;6.80;;;;;;;;;;10400994;28;20049;-77
2023/05/14 00:12:39;;;;;;;17.33;7.05;;;;;;;;;;10396443;28;20042;-76
2023/05/14 00:17:42;;;;;;;18.17;7.83;;;;;;;;;;10400120;28;20053;-76
2023/05/14 00:22:47;;;;;;;20.13;8.00;;;;;;;;;;10399059;28;20049;-77
2023/05/14 00:27:50;;;;;;;16.73;6.65;;;;;;;;;;10401599;28;20422;-77
2023/05/14 00:32:53;;;;;;;19.58;7.30;;;;;;;;;;10398727;28;20053;-80
2023/05/14 00:37:57;;;;;;;17.13;7.13;;;;;;;;;;10391351;28;20124;-78
2023/05/14 00:42:59;;;;;;;16.70;7.20;;;;;;;;;;10398313;28;20091;-77
2023/05/14 00:48:03;;;;;;;15.47;7.00;;;;;;;;;;10398566;28;20076;-77
2023/05/14 00:53:09;;;;;;;;;;;;;;;;;;10398151;28;20041;-77
2023/05/14 00:58:13;;;;;;;17.50;7.22;;;;;;;;;;10398524;28;19967;-76
2023/05/14 01:03:16;;;;;;;15.52;6.70;;;;;;;;;;10396293;28;20041;-76
2023/05/14 01:08:23;;;;;;;14.57;6.13;;;;;;;;;;10397097;28;20474;-77
2023/05/14 01:13:33;;;;;;;17.08;6.78;;;;;;;;;;10397771;28;20513;-79
2023/05/14 01:18:37;;;;;;;15.20;6.50;;;;;;;;;;10398592;28;20044;-75
2023/05/14 01:23:41;;;;;;;15.20;6.18;;;;;;;;;;10396216;28;20041;-76
2023/05/14 01:28:44;;;;;;;14.75;6.45;;;;;;;;;;10401009;28;20045;-75
2023/05/14 01:33:48;;;;;;;16.73;5.93;;;;;;;;;;10402395;28;20133;-79
2023/05/14 01:38:53;;;;;;;17.10;6.45;;;;;;;;;;10407101;28;20129;-77
2023/05/14 01:43:57;;;;;;;15.40;6.57;;;;;;;;;;10405303;28;20034;-76
2023/05/14 01:48:59;;;;;;;;;;;;;;;;;;10404700;28;20046;-77
2023/05/14 01:54:03;;;;;;;18.33;8.18;;;;;;;;;;10408124;28;19944;-77
2023/05/14 01:59:06;;;;;;;;;;;;;;;;;;10403848;28;20048;-77
2023/05/14 02:04:09;;;;;;;19.02;8.40;;;;;;;;;;10405169;28;20190;-77
2023/05/14 02:09:13;;;;;;;22.00;8.63;;;;;;;;;;10401459;28;20060;-76
2023/05/14 02:14:15;;;;;;;;;;;;;;;;;;10401352;28;20041;-77
2023/05/14 02:19:18;;;;;;;22.75;7.93;;;;;;;;;;10400409;28;19929;-77
2023/05/14 02:24:23;;;;;;;18.20;7.60;;;;;;;;;;10405493;28;20045;-77
2023/05/14 02:29:25;;;;;;;22.60;8.27;;;;;;;;;;10397739;28;20033;-77
2023/05/14 02:34:28;;;;;;;18.05;8.10;;;;;;;;;;10400791;28;20045;-77
2023/05/14 02:39:32;;;;;;;19.85;8.15;;;;;;;;;;10402845;28;20049;-77
2023/05/14 02:44:35;;;;;;;24.02;9.48;;;;;;;;;;10395305;28;20095;-77
2023/05/14 02:49:41;;;;;;;16.30;7.00;;;;;;;;;;10401625;28;20075;-76
2023/05/14 02:54:45;;;;;;;18.35;7.80;;;;;;;;;;10400052;28;20041;-76
2023/05/14 02:59:48;;;;;;;16.20;6.35;;;;;;;;;;10401673;28;20048;-76
2023/05/14 03:04:51;;;;;;;17.17;7.50;;;;;;;;;;10398892;28;20033;-76
2023/05/14 03:09:55;;;;;;;17.02;8.23;;;;;;;;;;10400311;28;20060;-76
2023/05/14 03:14:58;;;;;;;19.33;7.90;;;;;;;;;;10396442;28;20042;-76
2023/05/14 03:20:01;;;;;;;19.53;7.80;;;;;;;;;;10394704;28;20494;-76
2023/05/14 03:25:06;;;;;;;18.75;8.13;;;;;;;;;;10397871;28;20033;-77
2023/05/14 03:30:10;;;;;;;19.38;7.18;;;;;;;;;;10401347;28;20053;-76
2023/05/14 03:35:13;;;;;;;20.42;8.23;;;;;;;;;;10398861;28;20069;-75
2023/05/14 03:40:20;;;;;;;19.52;7.93;;;;;;;;;;10395152;28;20115;-76
2023/05/14 03:45:23;;;;;;;19.63;7.80;;;;;;;;;;10395232;28;20502;-78
2023/05/14 03:50:26;;;;;;;18.90;7.00;;;;;;;;;;10401158;28;20041;-77
2023/05/14 03:55:30;;;;;;;17.55;7.47;;;;;;;;;;10398948;28;20041;-77
2023/05/14 04:00:33;;;;;;;20.60;7.22;;;;;;;;;;10396365;28;20045;-77
2023/05/14 04:05:36;;;;;;;20.53;7.97;;;;;;;;;;10399183;28;20394;-77
2023/05/14 04:10:40;;;;;;;19.98;8.02;;;;;;;;;;10397987;28;20083;-77
2023/05/14 04:15:44;;;;;;;23.17;8.10;;;;;;;;;;10398702;28;20048;-77
2023/05/14 04:20:47;;;;;;;18.65;7.57;;;;;;;;;;10403563;28;20041;-77
2023/05/14 04:25:52;;;;;;;23.63;8.50;;;;;;;;;;10399231;28;20040;-78
2023/05/14 04:30:55;;;;;;;22.63;7.57;;;;;;;;;;10402316;28;20103;-76
2023/05/14 04:35:57;;;;;;;18.00;7.63;;;;;;;;;;10394058;28;20033;-76
2023/05/14 04:41:01;;;;;;;17.27;7.20;;;;;;;;;;10401320;28;20323;-77
2023/05/14 04:46:05;;;;;;;20.65;8.18;;;;;;;;;;10396727;28;20112;-77
2023/05/14 04:51:08;;;;;;;20.73;7.97;;;;;;;;;;10397560;28;20132;-76
2023/05/14 04:56:12;;;;;;;19.93;8.47;;;;;;;;;;10398198;28;20034;-75
2023/05/14 05:01:15;;;;;;;22.73;8.75;;;;;;;;;;10395168;28;20046;-76
2023/05/14 05:06:18;;;;;;;26.50;8.83;;;;;;;;;;10403560;28;20042;-76
2023/05/14 05:11:23;;;;;;;20.47;8.00;;;;;;;;;;10406492;28;20037;-76
2023/05/14 05:16:26;;;;;;;20.58;7.28;;;;;;;;;;10406427;28;20335;-76
2023/05/14 05:21:29;;;;;;;21.40;8.10;;;;;;;;;;10406019;28;20041;-75
2023/05/14 05:26:35;;;;;;;24.57;8.37;;;;;;;;;;10405187;28;20120;-75
2023/05/14 05:31:38;;;;;;;23.20;8.23;;;;;;;;;;10397898;28;20805;-76
2023/05/14 05:36:41;;;;;;;21.27;7.72;;;;;;;;;;10402624;28;20547;-75
2023/05/14 05:41:46;;;;;;;23.17;7.70;;;;;;;;;;10403945;28;20041;-75
2023/05/14 05:46:49;;;;;;;23.05;8.07;;;;;;;;;;10401645;28;20502;-76
2023/05/14 05:51:52;;;;;;;22.35;7.75;;;;;;;;;;10404009;28;20050;-77
2023/05/14 05:56:57;;;;;;;22.75;8.38;;;;;;;;;;10403555;28;20083;-76
2023/05/14 06:01:59;;;;;;;26.00;8.38;;;;;;;;;;10400982;28;20140;-76
2023/05/14 06:07:02;;;;;;;22.55;7.45;;;;;;;;;;10402940;28;20037;-75
2023/05/14 06:12:07;;;;;;;24.17;9.03;;;;;;;;;;10403457;28;20087;-75
2023/05/14 06:17:10;;;;;;;23.90;8.32;;;;;;;;;;10400103;28;20088;-77
2023/05/14 06:22:13;;;;;;;23.13;7.95;;;;;;;;;;10400936;28;20053;-76
2023/05/14 06:27:17;;;;;;;21.00;7.67;;;;;;;;;;10400900;28;20049;-75
2023/05/14 06:32:20;;;;;;;23.30;7.43;;;;;;;;;;10401059;28;20149;-75
2023/05/14 06:37:24;;;;;;;24.87;8.30;;;;;;;;;;10393620;28;20120;-76
2023/05/14 06:42:28;;;;;;;21.07;8.47;;;;;;;;;;10398580;28;20812;-75
2023/05/14 06:47:31;;;;;;;24.58;9.55;;;;;;;;;;10401185;28;20045;-75
2023/05/14 06:52:34;;;;;;;20.95;7.88;;;;;;;;;;10401417;28;20049;-76
2023/05/14 06:57:38;;;;;;;21.03;7.40;;;;;;;;;;10399964;28;20034;-78
2023/05/14 07:02:42;;;;;;;18.10;7.22;;;;;;;;;;10403022;28;20490;-77
2023/05/14 07:07:45;;;;;;;18.80;7.40;;;;;;;;;;10400275;28;20339;-76
2023/05/14 07:12:49;;;;;;;22.52;9.43;;;;;;;;;;10401940;28;20053;-75
2023/05/14 07:17:52;;;;;;;21.40;8.38;;;;;;;;;;10399320;28;20034;-76
2023/05/14 07:22:55;;;;;;;21.55;8.82;;;;;;;;;;10400411;28;20052;-78
2023/05/14 07:27:59;;;;;;;20.38;8.35;;;;;;;;;;10397387;28;20127;-77
2023/05/14 07:33:02;;;;;;;17.30;7.40;;;;;;;;;;10400423;28;20100;-77
2023/05/14 07:38:05;;;;;;;20.57;8.00;;;;;;;;;;10398319;28;20048;-75
2023/05/14 07:43:10;;;;;;;20.75;8.20;;;;;;;;;;10406289;28;20103;-76
2023/05/14 07:48:12;;;;;;;21.63;8.48;;;;;;;;;;10405959;28;20052;-76
2023/05/14 07:53:15;;;;;;;18.03;7.40;;;;;;;;;;10394783;28;20049;-76
2023/05/14 07:58:19;;;;;;;19.77;7.13;;;;;;;;;;10397375;28;20522;-75
2023/05/14 08:03:22;;;;;;;17.95;7.80;;;;;;;;;;10395184;28;20037;-77
2023/05/14 08:08:26;;;;;;;20.52;8.18;;;;;;;;;;10399259;28;20033;-77
2023/05/14 08:13:30;;;;;;;17.92;7.68;;;;;;;;;;10401916;28;20049;-76
2023/05/14 08:18:32;;;;;;;19.65;7.50;;;;;;;;;;10396709;28;20042;-77
2023/05/14 08:23:35;;;;;;;15.27;7.00;;;;;;;;;;10403191;28;20037;-76
2023/05/14 08:28:39;;;;;;;16.00;7.40;;;;;;;;;;10401740;28;20426;-76
2023/05/14 08:33:42;;;;;;;17.65;7.82;;;;;;;;;;10401341;28;20088;-76
2023/05/14 08:38:45;;;;;;;14.30;6.50;;;;;;;;;;10403730;28;20045;-75
2023/05/14 08:43:54;;;;;;;19.83;6.87;;;;;;;;;;10403357;28;20042;-77
2023/05/14 08:49:01;;;;;;;17.33;7.18;;;;;;;;;;10414102;28;20044;-74
2023/05/14 08:54:05;;;;;;;19.05;8.73;;;;;;;;;;10410090;28;20044;-77
2023/05/14 08:59:11;;;;;;;16.02;7.65;;;;;;;;;;10405249;28;20383;-75
2023/05/14 09:04:15;;;;;;;20.58;8.20;;;;;;;;;;10403339;28;20054;-77
2023/05/14 09:09:21;;;;;;;16.25;7.45;;;;;;;;;;10404807;28;20057;-77
2023/05/14 09:14:25;;;;;;;18.88;8.35;;;;;;;;;;10407276;28;20037;-78
2023/05/14 09:19:27;;;;;;;14.48;6.60;;;;;;;;;;10411227;28;20514;-78
2023/05/14 09:24:30;;;;;;;15.68;6.93;;;;;;;;;;10407143;28;20049;-76
2023/05/14 09:29:35;;;;;;;11.45;5.85;;;;;;;;;;10407010;28;20041;-76
2023/05/14 09:34:40;;;;;;;13.82;5.95;;;;;;;;;;10415254;28;20474;-77
2023/05/14 09:39:42;;;;;;;18.25;7.55;;;;;;;;;;10416229;28;20041;-78
2023/05/14 09:44:47;;;;;;;13.85;6.00;;;;;;;;;;10411470;28;20462;-75
2023/05/14 09:49:49;;;;;;;15.90;6.53;;;;;;;;;;10404832;28;20458;-75
2023/05/14 09:54:52;;;;;;;12.10;5.18;;;;;;;;;;10402748;28;20045;-76
2023/05/14 09:59:56;;;;;;;15.50;5.07;;;;;;;;;;10407810;28;20047;-77
2023/05/14 10:05:01;;;;;;;10.45;4.80;;;;;;;;;;10400856;28;20307;-77
2023/05/14 10:10:07;;;;;;;11.05;5.45;;;;;;;;;;10401996;28;20048;-76
2023/05/14 10:15:16;;;;;;;11.75;6.00;;;;;;;;;;10400340;28;20524;-77
2023/05/14 10:20:19;;;;;;;13.43;6.65;;;;;;;;;;10408550;28;20509;-75
2023/05/14 10:25:22;;;;;;;12.05;5.80;;;;;;;;;;10402731;28;20069;-75
2023/05/14 10:30:26;;;;;;;12.37;6.57;;;;;;;;;;10401107;28;20508;-77
2023/05/14 10:35:30;;;;;;;12.57;6.10;;;;;;;;;;10395009;28;20391;-75
2023/05/14 10:40:32;;;;;;;22.33;9.65;;;;;;;;;;10404812;28;20045;-76
2023/05/14 10:45:37;;;;;;;10.75;5.53;;;;;;;;;;10405398;28;20686;-75
2023/05/14 10:50:41;;;;;;;10.75;5.43;;;;;;;;;;10402564;28;20045;-77
2023/05/14 10:55:44;;;;;;;10.70;5.13;;;;;;;;;;10404921;28;20568;-76
2023/05/14 11:00:54;;;;;;;9.93;4.80;;;;;;;;;;10405270;28;20434;-76
2023/05/14 11:05:57;;;;;;;11.90;5.20;;;;;;;;;;10405165;28;20117;-77
2023/05/14 11:11:00;;;;;;;10.20;4.70;;;;;;;;;;10405174;28;20072;-76
2023/05/14 11:16:06;;;;;;;10.23;4.97;;;;;;;;;;10404472;28;20069;-77
2023/05/14 11:21:24;;;;;;;8.68;4.65;;;;;;;;;;10401104;28;20049;-77
2023/05/14 11:26:27;;;;;;;10.00;5.40;;;;;;;;;;10402391;28;20115;-78
2023/05/14 11:31:31;;;;;;;9.23;5.50;;;;;;;;;;10401146;28;20060;-79
2023/05/14 11:36:36;;;;;;;9.55;4.90;;;;;;;;;;10398165;28;20549;-77
2023/05/14 11:41:43;;;;;;;8.93;4.85;;;;;;;;;;10397295;28;20056;-76
2023/05/14 11:46:55;;;;;;;8.05;4.43;;;;;;;;;;10396824;28;20053;-76
2023/05/14 11:51:59;;;;;;;10.95;5.13;;;;;;;;;;10401571;28;20037;-76
2023/05/14 11:57:08;;;;;;;10.48;4.47;;;;;;;;;;10401666;28;20033;-77
2023/05/14 12:02:12;;;;;;;9.02;4.82;;;;;;;;;;10397784;28;20559;-78
2023/05/14 12:07:16;;;;;;;9.43;5.18;;;;;;;;;;10402723;28;20128;-77
2023/05/14 12:12:18;;;;;;;;;;;;;;;;;;10398427;28;20045;-76
2023/05/14 12:17:23;;;;;;;7.40;4.22;;;;;;;;;;10398854;28;19997;-75
2023/05/14 12:22:25;;;;;;;7.85;4.70;;;;;;;;;;10398184;28;20107;-76
2023/05/14 12:27:29;;;;;;;8.80;5.00;;;;;;;;;;10393557;28;20061;-77
2023/05/14 12:32:34;;;;;;;9.00;4.88;;;;;;;;;;10395819;28;20490;-78
2023/05/14 12:37:38;;;;;;;5.85;4.03;;;;;;;;;;10398886;28;20041;-77
2023/05/14 12:42:41;;;;;;;6.72;4.38;;;;;;;;;;10395620;28;20136;-77
2023/05/14 12:47:46;;;;;;;7.88;4.45;;;;;;;;;;10392164;28;20363;-76
2023/05/14 12:52:49;;;;;;;7.65;4.55;;;;;;;;;;10395808;28;21668;-78
2023/05/14 12:57:52;;;;;;;8.68;4.97;;;;;;;;;;10398093;28;20090;-78
2023/05/14 13:02:56;;;;;;;8.95;5.13;;;;;;;;;;10397486;28;20050;-77
2023/05/14 13:07:59;;;;;;;6.20;4.10;;;;;;;;;;10396130;28;20427;-78
2023/05/14 13:13:01;;;;;;;7.38;4.60;;;;;;;;;;10393537;28;20116;-77
2023/05/14 13:18:06;;;;;;;6.00;3.83;;;;;;;;;;10394172;28;20053;-77
2023/05/14 13:23:10;;;;;;;5.82;3.47;;;;;;;;;;10396097;28;20048;-77
2023/05/14 13:28:35;;;;;;;5.57;3.58;;;;;;;;;;10398003;28;20502;-77
2023/05/14 13:34:01;;;;;;;4.50;3.40;;;;;;;;;;10399281;28;20046;-77
2023/05/14 13:39:25;;;;;;;8.25;5.10;;;;;;;;;;10399311;28;20042;-76
2023/05/14 13:44:49;;;;;;;6.35;4.07;;;;;;;;;;10402080;28;20106;-77
2023/05/14 13:50:15;;;;;;;6.45;3.90;;;;;;;;;;10401489;28;20183;-76
2023/05/14 13:55:39;;;;;;;5.18;3.58;;;;;;;;;;10402342;28;20149;-77
2023/05/14 14:01:03;;;;;;;4.72;3.50;;;;;;;;;;10398791;28;20057;-78
2023/05/14 14:06:30;;;;;;;4.90;3.35;;;;;;;;;;10403742;28;20046;-78
2023/05/14 14:11:53;;;;;;;5.03;2.95;;;;;;;;;;10404560;28;20536;-77
2023/05/14 14:17:18;;;;;;;4.75;2.90;;;;;;;;;;10399637;28;20045;-77
2023/05/14 14:22:43;;;;;;;5.03;3.10;;;;;;;;;;10401443;28;20041;-78
2023/05/14 14:28:06;;;;;;;6.07;3.88;;;;;;;;;;10399273;28;20205;-77
2023/05/14 14:33:29;;;;;;;4.75;2.80;;;;;;;;;;10397871;28;20121;-76
2023/05/14 14:38:54;;;;;;;3.47;2.55;;;;;;;;;;10397557;28;20042;-75
2023/05/14 14:44:16;;;;;;;4.10;2.50;;;;;;;;;;10395598;28;20518;-74
2023/05/14 14:49:40;;;;;;;4.55;2.95;;;;;;;;;;10403002;28;20045;-77
2023/05/14 14:55:02;;;;;;;;;;;;;;;;;;10398746;28;20495;-76
2023/05/14 15:00:27;;;;;;;3.33;2.43;;;;;;;;;;10397638;28;20011;-76
2023/05/14 15:05:50;;;;;;;5.05;2.92;;;;;;;;;;10396921;28;20041;-77
2023/05/14 15:11:13;;;;;;;3.47;2.20;;;;;;;;;;10399849;28;20052;-75
2023/05/14 15:16:38;;;;;;;4.45;2.28;;;;;;;;;;10392553;28;20080;-76
2023/05/14 15:22:01;;;;;;;9.48;4.22;;;;;;;;;;10396438;28;20057;-77
2023/05/14 15:27:25;;;;;;;3.80;2.30;;;;;;;;;;10397525;28;20052;-77
2023/05/14 15:32:49;;;;;;;4.85;2.95;;;;;;;;;;10398062;28;20064;-77
2023/05/14 15:38:12;;;;;;;3.08;1.95;;;;;;;;;;10394979;28;20037;-77
2023/05/14 15:43:35;;;;;;;3.25;1.98;;;;;;;;;;10392072;28;20414;-78
2023/05/14 15:49:00;;;;;;;3.72;2.17;;;;;;;;;;10395050;28;20045;-77
2023/05/14 15:54:25;;;;;;;4.78;2.30;;;;;;;;;;10396250;28;20271;-78
2023/05/14 15:59:47;;;;;;;4.32;1.63;;;;;;;;;;10397992;28;20041;-76
2023/05/14 16:05:13;;;;;;;1.90;1.33;;;;;;;;;;10394882;28;20110;-76
2023/05/14 16:10:36;;;;;;;2.83;1.67;;;;;;;;;;10397918;28;20555;-76
2023/05/14 16:16:00;;;;;;;;;;;;;;;;;;10391615;28;20056;-76
2023/05/14 16:21:28;;;;;;;6.03;2.20;;;;;;;;;;10394480;28;19921;-77
2023/05/14 16:26:52;;;;;;;3.53;2.00;;;;;;;;;;10394045;28;20050;-75
2023/05/14 16:32:14;;;;;;;6.13;2.30;;;;;;;;;;10393583;28;20167;-74
2023/05/14 16:37:39;;;;;;;6.13;2.20;;;;;;;;;;10391061;28;20050;-76
2023/05/14 16:43:02;;;;;;;3.15;1.80;;;;;;;;;;10394471;28;20041;-77
2023/05/14 16:48:26;;;;;;;3.67;1.85;;;;;;;;;;10396932;28;20049;-78
2023/05/14 16:53:51;;;;;;;1.60;1.15;;;;;;;;;;10394710;28;20041;-77
2023/05/14 16:59:16;;;;;;;2.25;1.50;;;;;;;;;;10396736;28;20068;-77
2023/05/14 17:04:40;;;;;;;1.90;1.30;;;;;;;;;;10400879;28;20038;-77
2023/05/14 17:10:09;;;;;;;2.88;1.70;;;;;;;;;;10402036;28;20130;-77
2023/05/14 17:15:32;;;;;;;3.50;1.80;;;;;;;;;;10402058;28;20579;-78
2023/05/14 17:20:34;;;;;;;4.90;2.60;;;;;;;;;;10405614;28;20041;-78
2023/05/14 17:25:39;;;;;;;4.67;2.00;;;;;;;;;;10394927;28;20044;-77
2023/05/14 17:31:02;;;;;;;3.70;2.30;;;;;;;;;;10395771;28;20038;-77
2023/05/14 17:36:27;;;;;;;4.25;2.15;;;;;;;;;;10399646;28;20054;-76
2023/05/14 17:41:51;;;;;;;2.75;1.80;;;;;;;;;;10397730;28;20037;-77
2023/05/14 17:47:15;;;;;;;2.90;1.75;;;;;;;;;;10399208;28;20057;-76
2023/05/14 17:52:40;;;;;;;3.22;1.75;;;;;;;;;;10397648;28;20057;-77
2023/05/14 17:58:05;;;;;;;2.90;1.70;;;;;;;;;;10392218;28;20513;-76
2023/05/14 18:03:09;;;;;;;2.25;1.50;;;;;;;;;;10403190;28;20038;-76
2023/05/14 18:08:25;;;;;;;2.95;1.77;;;;;;;;;;10394432;28;21041;-76
2023/05/14 18:13:29;;;;;;;3.50;1.80;;;;;;;;;;10393675;28;20037;-78
2023/05/14 18:18:32;;;;;;;3.25;1.60;;;;;;;;;;10397632;28;20479;-78
2023/05/14 18:23:38;;;;;;;7.57;2.07;;;;;;;;;;10400885;28;20059;-77
2023/05/14 18:28:41;;;;;;;4.57;2.50;;;;;;;;;;10396814;28;20107;-76
2023/05/14 18:33:44;;;;;;;7.07;3.63;;;;;;;;;;10395826;28;20049;-77
2023/05/14 18:38:47;;;;;;;16.38;8.57;;;;;;;;;;10398526;28;20041;-76
2023/05/14 18:43:51;;;;;;;3.72;2.10;;;;;;;;;;10416025;28;20044;-75
2023/05/14 18:48:53;;;;;;;6.03;3.00;;;;;;;;;;10403516;28;20049;-75
2023/05/14 18:53:56;;;;;;;3.22;1.80;;;;;;;;;;10408423;28;20061;-76
2023/05/14 18:59:00;;;;;;;3.25;1.90;;;;;;;;;;10401671;28;20112;-76
2023/05/14 19:04:02;;;;;;;;;;;;;;;;;;10404900;28;20042;-76
2023/05/14 19:09:06;;;;;;;6.63;3.38;;;;;;;;;;10405150;28;20062;-75
2023/05/14 19:14:10;;;;;;;12.50;5.65;;;;;;;;;;10396182;28;20145;-76
2023/05/14 19:19:13;;;;;;;;;;;;;;;;;;10405517;28;20042;-77
2023/05/14 19:24:15;;;;;;;5.40;2.40;;;;;;;;;;10397486;28;20380;-75
2023/05/14 19:29:19;;;;;;;7.18;3.28;;;;;;;;;;10394121;28;20448;-76
2023/05/14 19:34:21;;;;;;;;;;;;;;;;;;10404825;28;20044;-76
2023/05/14 19:39:24;;;;;;;5.68;2.80;;;;;;;;;;10414147;28;19921;-74
2023/05/14 19:44:28;;;;;;;5.07;2.53;;;;;;;;;;10409884;28;20053;-74
2023/05/14 19:49:30;;;;;;;13.88;5.47;;;;;;;;;;10403937;28;20168;-76
2023/05/14 19:54:33;;;;;;;9.15;3.40;;;;;;;;;;10416900;28;20451;-76
2023/05/14 19:59:39;;;;;;;7.03;3.67;;;;;;;;;;10413825;28;20091;-77
2023/05/14 20:04:43;;;;;;;7.05;3.25;;;;;;;;;;10410642;28;20091;-76
2023/05/14 20:09:46;;;;;;;6.97;3.63;;;;;;;;;;10409168;28;20129;-76
2023/05/14 20:14:50;;;;;;;15.63;5.15;;;;;;;;;;10396994;28;20139;-76
2023/05/14 20:19:53;;;;;;;13.70;6.45;;;;;;;;;;10404792;28;20041;-75
2023/05/14 20:24:55;;;;;;;7.65;3.83;;;;;;;;;;10404582;28;20080;-76
2023/05/14 20:29:59;;;;;;;7.40;3.90;;;;;;;;;;10392678;28;20072;-76
2023/05/14 20:35:02;;;;;;;;;;;;;;;;;;10405178;28;20124;-75
2023/05/14 20:40:05;;;;;;;7.43;3.60;;;;;;;;;;10403331;28;20413;-76
2023/05/14 20:45:10;;;;;;;7.60;3.70;;;;;;;;;;10403526;28;20505;-77
2023/05/14 20:50:13;;;;;;;6.53;3.10;;;;;;;;;;10403148;28;20534;-76
2023/05/14 20:55:17;;;;;;;8.13;4.00;;;;;;;;;;10404801;28;20049;-76
2023/05/14 21:00:21;;;;;;;7.32;3.53;;;;;;;;;;10407426;28;20570;-78
2023/05/14 21:05:27;;;;;;;7.25;3.58;;;;;;;;;;10401202;28;20037;-77
2023/05/14 21:10:30;;;;;;;8.83;4.73;;;;;;;;;;10405102;28;20048;-76
2023/05/14 21:15:36;;;;;;;7.50;3.50;;;;;;;;;;10405177;28;20050;-76
2023/05/14 21:20:39;;;;;;;7.53;3.90;;;;;;;;;;10402304;28;20037;-76
2023/05/14 21:25:42;;;;;;;6.18;3.05;;;;;;;;;;10399530;28;20053;-76
2023/05/14 21:30:46;;;;;;;9.23;3.83;;;;;;;;;;10405298;28;20037;-77
2023/05/14 21:35:48;;;;;;;;;;;;;;;;;;10403211;28;20115;-75
2023/05/14 21:40:51;;;;;;;6.70;3.65;;;;;;;;;;10406319;28;19925;-76
2023/05/14 21:45:55;;;;;;;8.52;3.30;;;;;;;;;;10400937;28;20049;-76
2023/05/14 21:50:57;;;;;;;6.45;3.40;;;;;;;;;;10403256;28;20133;-75
2023/05/14 21:56:00;;;;;;;8.00;3.60;;;;;;;;;;10398883;28;20107;-75
2023/05/14 22:01:04;;;;;;;6.50;3.25;;;;;;;;;;10401017;28;20034;-75
2023/05/14 22:06:07;;;;;;;8.18;3.38;;;;;;;;;;10400409;28;20057;-77
2023/05/14 22:11:09;;;;;;;8.52;4.18;;;;;;;;;;10396537;28;20111;-76
2023/05/14 22:16:13;;;;;;;7.18;3.35;;;;;;;;;;10398295;28;20414;-77
2023/05/14 22:21:16;;;;;;;7.28;3.35;;;;;;;;;;10399626;28;20507;-76
2023/05/14 22:26:20;;;;;;;6.90;3.40;;;;;;;;;;10400370;28;20041;-77
2023/05/14 22:31:24;;;;;;;6.50;3.20;;;;;;;;;;10397520;28;20033;-75
2023/05/14 22:36:26;;;;;;;;;;;;;;;;;;10396714;28;20145;-75
2023/05/14 22:41:30;;;;;;;8.05;3.80;;;;;;;;;;10399890;28;19925;-76
2023/05/14 22:46:35;;;;;;;6.53;3.00;;;;;;;;;;10396950;28;20072;-76
2023/05/14 22:51:37;;;;;;;7.18;3.70;;;;;;;;;;10396050;28;20041;-76
2023/05/14 22:56:40;;;;;;;7.22;3.45;;;;;;;;;;10397775;28;20052;-75
2023/05/14 23:01:44;;;;;;;6.90;3.33;;;;;;;;;;10395604;28;20049;-75
2023/05/14 23:06:47;;;;;;;7.80;3.67;;;;;;;;;;10390708;28;20049;-74
2023/05/14 23:11:49;;;;;;;8.93;3.72;;;;;;;;;;10400634;28;20045;-75
2023/05/14 23:16:53;;;;;;;8.77;3.90;;;;;;;;;;10396898;28;20041;-75
2023/05/14 23:21:57;;;;;;;;;;;;;;;;;;10399491;28;20045;-76
2023/05/14 23:26:59;;;;;;;6.20;3.42;;;;;;;;;;10400042;28;19937;-75
2023/05/14 23:32:03;;;;;;;6.85;3.42;;;;;;;;;;10400466;28;20055;-77
2023/05/14 23:37:06;;;;;;;8.88;3.70;;;;;;;;;;10399966;28;20151;-75
2023/05/14 23:42:09;;;;;;;7.32;3.38;;;;;;;;;;10400790;28;20402;-76
2023/05/14 23:47:13;;;;;;;9.15;3.95;;;;;;;;;;10400679;28;20091;-76
2023/05/14 23:52:15;;;;;;;;;;;;;;;;;;10400343;28;20046;-75
2023/05/14 23:57:17;;;;;;;7.75;3.50;;;;;;;;;;10397984;28;20414;-75
